ADDS METAR Data INFO
IDs: Format: Raw Decoded Include TAF

Data at: 1519 UTC 11 Dec 2017

KPTN 111456Z AUTO 22005KT 10SM CLR 09/08 A3034 RMK AO2 SLP275 T00940083 51007
KPTN 111356Z AUTO 00000KT 10SM CLR 04/04 A3033 RMK AO2 SLP273 T00390039
KPTN 111256Z AUTO 00000KT 10SM CLR 01/00 A3033 RMK AO2 SLP271 T00060000 FZRANO
KPTN 111156Z AUTO 00000KT 10SM CLR 01/01 A3032 RMK AO2 SLP268 T00060006 10033 20006 55004 FZRANO
KPTN 111133Z AUTO 20003KT 10SM CLR 01/01 A3032 RMK AO2 FZRANO
KPTN 111056Z AUTO 00000KT 2 1/2SM BR CLR 02/02 A3032 RMK AO2 SLP267 T00170017 FZRANO
KPTN 110956Z AUTO 00000KT 10SM CLR 02/02 A3033 RMK AO2 SLP271 T00170017 FZRANO
KPTN 110856Z AUTO 00000KT 3SM BR CLR 02/02 A3033 RMK AO2 SLP273 T00220017 56008 FZRANO
KPTN 110837Z AUTO 00000KT 10SM CLR 02/02 A3033 RMK AO2 FZRANO
KPTN 110822Z AUTO 00000KT 2SM BR CLR 02/02 A3033 RMK AO2 FZRANO
KPTN 110756Z AUTO 00000KT 1SM BR CLR 02/02 A3033 RMK AO2 SLP273 T00170017 FZRANO
KPTN 110724Z AUTO 00000KT 2 1/2SM BR CLR 02/02 A3034 RMK AO2 FZRANO
KPTN 110709Z AUTO 00000KT 1 3/4SM BR CLR 02/02 A3033 RMK AO2 VIS 1 1/4V5 FZRANO
KPTN 110656Z AUTO 00000KT 6SM BR CLR 02/02 A3033 RMK AO2 SLP272 T00220022 FZRANO
KPTN 110556Z AUTO 00000KT 10SM CLR 03/03 A3036 RMK AO2 SLP281 T00330028 10089 20028 401611011 58008
KPTN 110456Z AUTO 00000KT 9SM CLR 03/03 A3037 RMK AO2 SLP285 T00330028
KPTN 110356Z AUTO 00000KT 10SM CLR 04/04 A3038 RMK AO2 SLP288 T00390039
KPTN 110256Z AUTO 00000KT 10SM CLR 04/04 A3038 RMK AO2 SLP289 T00440039 53009
KPTN 110156Z AUTO 23003KT 10SM CLR 06/05 A3037 RMK AO2 SLP285 T00610050
KPTN 110056Z AUTO 22003KT 10SM CLR 06/04 A3036 RMK AO2 SLP283 T00610039 TSNO
KPTN 102356Z AUTO 22005KT 10SM CLR 09/03 A3036 RMK AO2 SLP280 T00890028 10161 20089 51003
KPTN 102256Z AUTO 25005KT 10SM CLR 12/02 A3035 RMK AO2 SLP279 T01170017
KPTN 102156Z AUTO 26009KT 10SM CLR 14/M01 A3036 RMK AO2 SLP280 T01441006
KPTN 102056Z AUTO 24008KT 10SM CLR 16/03 A3035 RMK AO2 SLP277 T01560028 56014
KPTN 101956Z AUTO 28008KT 10SM CLR 16/03 A3035 RMK AO2 SLP278 T01610028
KPTN 101856Z AUTO 29006KT 10SM CLR 16/01 A3036 RMK AO2 SLP283 T01560011
KPTN 101756Z AUTO 25005KT 10SM CLR 14/01 A3039 RMK AO2 SLP292 T01440011 10144 21011 58011
KPTN 101656Z AUTO 00000KT 10SM CLR 13/04 A3042 RMK AO2 SLP303 T01280044
KPTN 101556Z AUTO 00000KT 10SM CLR 10/05 A3044 RMK AO2 SLP308 T01000050
KPTN 101456Z AUTO 00000KT 10SM CLR 07/04 A3042 RMK AO2 SLP303 T00670039 53018
KPTN 101356Z AUTO 00000KT 10SM CLR 03/03 A3039 RMK AO2 SLP293 T00330033
KPTN 101326Z AUTO 00000KT 9SM CLR 01/01 A3038 RMK AO2 FZRANO
KPTN 101313Z AUTO 00000KT 1 1/4SM BR CLR M01/M01 A3038 RMK AO2 FZRANO
KPTN 101256Z AUTO 00000KT 1/2SM FZFG CLR M01/M01 A3037 RMK AO2 SLP286 T10111011 FZRANO
KPTN 101253Z AUTO 00000KT 3/4SM BR CLR M01/M01 A3037 RMK AO2 FZRANO
KPTN 101239Z AUTO 00000KT 1 1/2SM BR CLR M01/M01 A3037 RMK AO2 FZRANO
KPTN 101156Z AUTO 00000KT 10SM CLR M01/M01 A3037 RMK AO2 SLP285 70005 T10061006 10022 21006 53007 FZRANO
KPTN 101056Z AUTO 00000KT 4SM BR CLR 01/01 A3035 RMK AO2 SLP280 T00060006 FZRANO
KPTN 101008Z AUTO 00000KT 10SM CLR 01/01 A3035 RMK AO2 FZRANO
KPTN 100956Z AUTO 00000KT 2SM BR FEW002 01/01 A3035 RMK AO2 VIS 1/2V5 SLP278 T00110011 FZRANO
KPTN 100946Z AUTO 00000KT 1SM BR VV002 01/01 A3035 RMK AO2 FZRANO
KPTN 100943Z AUTO 00000KT 2SM BR FEW002 01/01 A3035 RMK AO2 VIS 1V5 FZRANO
KPTN 100939Z AUTO 00000KT 1SM BR VV002 01/01 A3035 RMK AO2 FZRANO
KPTN 100931Z AUTO 00000KT 1/2SM FG VV002 01/01 A3035 RMK AO2 FZRANO
KPTN 100928Z AUTO 00000KT 3/4SM BR CLR 01/01 A3035 RMK AO2 VIS 1/2V5 FZRANO
KPTN 100925Z AUTO 00000KT 1 3/4SM BR CLR 02/01 A3035 RMK AO2 VIS 1/2V5 FZRANO
KPTN 100902Z AUTO 00000KT 3SM BR CLR 01/01 A3035 RMK AO2 FZRANO
KPTN 100856Z AUTO 00000KT 1 3/4SM BR CLR 01/01 A3035 RMK AO2 SLP277 T00110011 51004 FZRANO
KPTN 100756Z AUTO 00000KT 10SM CLR 01/01 A3034 RMK AO2 SLP276 T00110011 FZRANO
KPTN 100656Z AUTO 00000KT 10SM CLR 01/01 A3034 RMK AO2 SLP275 T00110011 FZRANO
KPTN 100642Z AUTO 00000KT 4SM BR CLR 02/02 A3034 RMK AO2 FZRANO
KPTN 100634Z AUTO 00000KT 1 3/4SM BR CLR 02/02 A3034 RMK AO2 FZRANO
KPTN 100556Z AUTO 00000KT 10SM CLR 02/02 A3034 RMK AO2 SLP273 T00220022 10056 20022 401061017 50009 FZRANO
KPTN 100456Z AUTO 00000KT 10SM CLR 02/02 A3035 RMK AO2 SLP277 T00220022 FZRANO
KPTN 100356Z AUTO 00000KT 10SM CLR 03/02 A3033 RMK AO2 SLP270 T00280022